sensor_id;sensor_type;location;lat;lon;timestamp;pressure;altitude;pressure_sealevel;temperature;humidity
54236;BME280;40151;43.606;1.472;2023-03-18T00:02:09;98907.06;;;17.45;53.94
54236;BME280;40151;43.606;1.472;2023-03-18T00:04:34;98908.00;;;17.44;53.66
54236;BME280;40151;43.606;1.472;2023-03-18T00:07:00;98903.66;;;17.43;53.89
54236;BME280;40151;43.606;1.472;2023-03-18T00:09:26;98903.66;;;17.43;53.89
54236;BME280;40151;43.606;1.472;2023-03-18T00:11:52;98905.34;;;17.44;53.96
54236;BME280;40151;43.606;1.472;2023-03-18T00:14:21;98920.16;;;17.47;53.43
54236;BME280;40151;43.606;1.472;2023-03-18T00:16:47;98912.16;;;17.49;53.65
54236;BME280;40151;43.606;1.472;2023-03-18T00:19:13;98915.91;;;17.44;53.75
54236;BME280;40151;43.606;1.472;2023-03-18T00:21:39;98909.88;;;17.42;53.65
54236;BME280;40151;43.606;1.472;2023-03-18T00:24:04;98900.16;;;17.43;53.96
54236;BME280;40151;43.606;1.472;2023-03-18T00:26:30;98901.03;;;17.43;53.61
54236;BME280;40151;43.606;1.472;2023-03-18T00:28:57;98904.69;;;17.41;53.86
54236;BME280;40151;43.606;1.472;2023-03-18T00:31:23;98913.44;;;17.41;53.90
54236;BME280;40151;43.606;1.472;2023-03-18T00:33:49;98912.66;;;17.39;53.83
54236;BME280;40151;43.606;1.472;2023-03-18T00:36:15;98908.34;;;17.38;53.64
54236;BME280;40151;43.606;1.472;2023-03-18T00:38:45;98909.13;;;17.40;54.08
54236;BME280;40151;43.606;1.472;2023-03-18T00:41:12;98904.75;;;17.39;53.91
54236;BME280;40151;43.606;1.472;2023-03-18T00:43:47;98901.09;;;17.42;53.63
54236;BME280;40151;43.606;1.472;2023-03-18T00:48:45;98903.84;;;17.40;53.88
54236;BME280;40151;43.606;1.472;2023-03-18T00:51:12;98905.88;;;17.35;53.89
54236;BME280;40151;43.606;1.472;2023-03-18T00:53:43;98908.41;;;17.37;54.10
54236;BME280;40151;43.606;1.472;2023-03-18T00:56:10;98907.56;;;17.36;54.10
54236;BME280;40151;43.606;1.472;2023-03-18T00:58:36;98912.84;;;17.36;53.96
54236;BME280;40151;43.606;1.472;2023-03-18T01:01:03;98902.13;;;17.39;53.95
54236;BME280;40151;43.606;1.472;2023-03-18T01:03:29;98910.13;;;17.38;53.97
54236;BME280;40151;43.606;1.472;2023-03-18T01:05:56;98903.06;;;17.38;53.92
54236;BME280;40151;43.606;1.472;2023-03-18T01:08:22;98905.78;;;17.37;54.14
54236;BME280;40151;43.606;1.472;2023-03-18T01:10:49;98905.78;;;17.37;53.83
54236;BME280;40151;43.606;1.472;2023-03-18T01:13:14;98901.34;;;17.37;53.89
54236;BME280;40151;43.606;1.472;2023-03-18T01:15:40;98902.44;;;17.33;53.91
54236;BME280;40151;43.606;1.472;2023-03-18T01:18:08;98911.03;;;17.37;54.23
54236;BME280;40151;43.606;1.472;2023-03-18T01:20:36;98919.97;;;17.34;53.88
54236;BME280;40151;43.606;1.472;2023-03-18T01:23:02;98908.66;;;17.32;54.15
54236;BME280;40151;43.606;1.472;2023-03-18T01:25:28;98903.25;;;17.35;54.04
54236;BME280;40151;43.606;1.472;2023-03-18T01:27:53;98905.88;;;17.35;54.03
54236;BME280;40151;43.606;1.472;2023-03-18T01:30:20;98899.59;;;17.38;53.89
54236;BME280;40151;43.606;1.472;2023-03-18T01:32:45;98895.47;;;17.32;54.00
54236;BME280;40151;43.606;1.472;2023-03-18T01:35:12;98882.16;;;17.35;54.22
54236;BME280;40151;43.606;1.472;2023-03-18T01:37:38;98894.66;;;17.31;54.29
54236;BME280;40151;43.606;1.472;2023-03-18T01:40:04;98889.38;;;17.31;54.15
54236;BME280;40151;43.606;1.472;2023-03-18T01:42:31;98893.78;;;17.31;53.77
54236;BME280;40151;43.606;1.472;2023-03-18T01:47:44;98893.59;;;17.34;54.23
54236;BME280;40151;43.606;1.472;2023-03-18T01:50:13;98897.28;;;17.31;54.13
54236;BME280;40151;43.606;1.472;2023-03-18T01:52:39;98893.78;;;17.31;53.97
54236;BME280;40151;43.606;1.472;2023-03-18T01:55:11;98890.22;;;17.32;54.03
54236;BME280;40151;43.606;1.472;2023-03-18T01:57:38;98886.63;;;17.33;54.07
54236;BME280;40151;43.606;1.472;2023-03-18T02:00:04;98889.03;;;17.38;54.17
54236;BME280;40151;43.606;1.472;2023-03-18T02:02:31;98885.78;;;17.33;53.99
54236;BME280;40151;43.606;1.472;2023-03-18T02:05:01;98885.13;;;17.29;53.89
54236;BME280;40151;43.606;1.472;2023-03-18T02:07:30;98887.56;;;17.32;54.03
54236;BME280;40151;43.606;1.472;2023-03-18T02:09:59;98884.94;;;17.32;53.89
54236;BME280;40151;43.606;1.472;2023-03-18T02:12:30;98894.53;;;17.33;53.93
54236;BME280;40151;43.606;1.472;2023-03-18T02:14:59;98893.78;;;17.31;53.86
54236;BME280;40151;43.606;1.472;2023-03-18T02:17:29;98898.03;;;17.34;53.77
54236;BME280;40151;43.606;1.472;2023-03-18T02:22:48;98938.53;;;17.33;53.80
54236;BME280;40151;43.606;1.472;2023-03-18T02:27:56;98974.44;;;17.35;53.87
54236;BME280;40151;43.606;1.472;2023-03-18T02:30:27;98989.16;;;17.39;54.05
54236;BME280;40151;43.606;1.472;2023-03-18T02:32:56;98997.75;;;17.43;53.77
54236;BME280;40151;43.606;1.472;2023-03-18T02:35:24;99001.00;;;17.48;53.68
54236;BME280;40151;43.606;1.472;2023-03-18T02:37:51;99001.78;;;17.50;53.44
54236;BME280;40151;43.606;1.472;2023-03-18T02:42:53;99013.03;;;17.54;53.53
54236;BME280;40151;43.606;1.472;2023-03-18T02:45:39;99003.22;;;17.56;53.46
54236;BME280;40151;43.606;1.472;2023-03-18T02:48:09;99002.22;;;17.58;53.36
54236;BME280;40151;43.606;1.472;2023-03-18T02:50:35;99003.22;;;17.56;53.34
54236;BME280;40151;43.606;1.472;2023-03-18T02:53:03;99002.22;;;17.58;53.29
54236;BME280;40151;43.606;1.472;2023-03-18T02:55:29;99008.25;;;17.61;53.08
54236;BME280;40151;43.606;1.472;2023-03-18T02:57:54;99009.09;;;17.61;53.22
54236;BME280;40151;43.606;1.472;2023-03-18T03:00:20;99015.16;;;17.63;53.29
54236;BME280;40151;43.606;1.472;2023-03-18T03:02:45;99008.16;;;17.62;53.19
54236;BME280;40151;43.606;1.472;2023-03-18T03:05:11;99002.88;;;17.62;53.32
54236;BME280;40151;43.606;1.472;2023-03-18T03:07:36;98996.69;;;17.63;53.18
54236;BME280;40151;43.606;1.472;2023-03-18T03:10:04;99001.03;;;17.64;53.24
54236;BME280;40151;43.606;1.472;2023-03-18T03:12:30;98994.91;;;17.64;53.20
54236;BME280;40151;43.606;1.472;2023-03-18T03:14:55;98994.81;;;17.65;52.84
54236;BME280;40151;43.606;1.472;2023-03-18T03:17:21;98993.97;;;17.65;53.07
54236;BME280;40151;43.606;1.472;2023-03-18T03:19:47;98999.16;;;17.66;53.03
54236;BME280;40151;43.606;1.472;2023-03-18T03:22:12;98999.16;;;17.66;53.11
54236;BME280;40151;43.606;1.472;2023-03-18T03:24:37;99007.34;;;17.62;52.97
54236;BME280;40151;43.606;1.472;2023-03-18T03:27:04;99001.19;;;17.61;53.02
54236;BME280;40151;43.606;1.472;2023-03-18T03:29:30;98998.56;;;17.61;53.34
54236;BME280;40151;43.606;1.472;2023-03-18T03:31:55;99006.47;;;17.61;53.14
54236;BME280;40151;43.606;1.472;2023-03-18T03:34:20;99000.25;;;17.62;52.94
54236;BME280;40151;43.606;1.472;2023-03-18T03:36:46;99001.13;;;17.63;52.88
54236;BME280;40151;43.606;1.472;2023-03-18T03:39:11;98995.91;;;17.61;53.02
54236;BME280;40151;43.606;1.472;2023-03-18T03:41:37;99005.53;;;17.62;52.92
54236;BME280;40151;43.606;1.472;2023-03-18T03:44:02;99005.53;;;17.62;53.23
54236;BME280;40151;43.606;1.472;2023-03-18T03:46:28;99010.72;;;17.64;52.99
54236;BME280;40151;43.606;1.472;2023-03-18T03:48:54;99004.59;;;17.63;52.87
54236;BME280;40151;43.606;1.472;2023-03-18T03:51:19;99003.75;;;17.63;53.06
54236;BME280;40151;43.606;1.472;2023-03-18T03:53:45;99002.88;;;17.62;52.85
54236;BME280;40151;43.606;1.472;2023-03-18T03:56:10;99001.13;;;17.63;53.23
54236;BME280;40151;43.606;1.472;2023-03-18T03:58:36;98997.47;;;17.65;52.99
54236;BME280;40151;43.606;1.472;2023-03-18T04:01:01;98989.69;;;17.62;52.98
54236;BME280;40151;43.606;1.472;2023-03-18T04:03:29;98989.88;;;17.59;52.90
54236;BME280;40151;43.606;1.472;2023-03-18T04:05:54;98987.25;;;17.59;53.00
54236;BME280;40151;43.606;1.472;2023-03-18T04:08:20;98996.09;;;17.58;53.19
54236;BME280;40151;43.606;1.472;2023-03-18T04:10:46;98989.09;;;17.57;53.34
54236;BME280;40151;43.606;1.472;2023-03-18T04:13:12;98989.97;;;17.57;53.22
54236;BME280;40151;43.606;1.472;2023-03-18T04:15:37;98991.66;;;17.58;53.00
54236;BME280;40151;43.606;1.472;2023-03-18T04:18:03;98987.25;;;17.59;52.85
54236;BME280;40151;43.606;1.472;2023-03-18T04:20:35;98988.94;;;17.60;53.16
54236;BME280;40151;43.606;1.472;2023-03-18T04:23:02;98994.22;;;17.60;53.20
54236;BME280;40151;43.606;1.472;2023-03-18T04:25:27;98987.13;;;17.61;52.84
54236;BME280;40151;43.606;1.472;2023-03-18T04:27:53;99002.88;;;17.62;52.98
54236;BME280;40151;43.606;1.472;2023-03-18T04:30:19;99008.03;;;17.65;53.07
54236;BME280;40151;43.606;1.472;2023-03-18T04:32:45;99009.88;;;17.63;53.07
54236;BME280;40151;43.606;1.472;2023-03-18T04:35:11;99004.59;;;17.63;52.85
54236;BME280;40151;43.606;1.472;2023-03-18T04:37:36;99010.66;;;17.65;53.09
54236;BME280;40151;43.606;1.472;2023-03-18T04:40:03;99010.66;;;17.65;52.99
54236;BME280;40151;43.606;1.472;2023-03-18T04:42:30;99019.41;;;17.66;52.94
54236;BME280;40151;43.606;1.472;2023-03-18T04:44:55;99015.06;;;17.65;52.90
54236;BME280;40151;43.606;1.472;2023-03-18T04:47:22;99008.78;;;17.67;52.98
54236;BME280;40151;43.606;1.472;2023-03-18T04:49:47;99010.66;;;17.65;53.02
54236;BME280;40151;43.606;1.472;2023-03-18T04:52:13;99008.84;;;17.66;52.91
54236;BME280;40151;43.606;1.472;2023-03-18T04:54:39;99008.03;;;17.65;52.72
54236;BME280;40151;43.606;1.472;2023-03-18T04:57:05;99009.72;;;17.66;52.85
54236;BME280;40151;43.606;1.472;2023-03-18T04:59:31;99014.13;;;17.66;53.18
54236;BME280;40151;43.606;1.472;2023-03-18T05:01:56;99021.97;;;17.67;52.79
54236;BME280;40151;43.606;1.472;2023-03-18T05:04:21;99014.25;;;17.64;52.90
54236;BME280;40151;43.606;1.472;2023-03-18T05:06:48;99014.13;;;17.66;52.71
54236;BME280;40151;43.606;1.472;2023-03-18T05:09:13;99007.84;;;17.68;52.86
54236;BME280;40151;43.606;1.472;2023-03-18T05:11:39;99015.16;;;17.63;52.98
54236;BME280;40151;43.606;1.472;2023-03-18T05:14:04;99009.78;;;17.65;52.98
54236;BME280;40151;43.606;1.472;2023-03-18T05:16:29;99026.50;;;17.65;53.05
54236;BME280;40151;43.606;1.472;2023-03-18T05:18:55;99019.50;;;17.64;52.71
54236;BME280;40151;43.606;1.472;2023-03-18T05:21:20;99022.97;;;17.65;52.75
54236;BME280;40151;43.606;1.472;2023-03-18T05:23:46;99016.00;;;17.64;52.62
54236;BME280;40151;43.606;1.472;2023-03-18T05:26:11;99023.94;;;17.64;52.92
54236;BME280;40151;43.606;1.472;2023-03-18T05:28:38;99020.28;;;17.66;52.84
54236;BME280;40151;43.606;1.472;2023-03-18T05:31:05;99020.94;;;17.70;52.89
54236;BME280;40151;43.606;1.472;2023-03-18T05:33:31;99032.53;;;17.67;52.77
54236;BME280;40151;43.606;1.472;2023-03-18T05:35:57;99021.81;;;17.70;52.74
54236;BME280;40151;43.606;1.472;2023-03-18T05:38:23;99025.38;;;17.69;52.54
54236;BME280;40151;43.606;1.472;2023-03-18T05:40:48;99034.22;;;17.68;52.58
54236;BME280;40151;43.606;1.472;2023-03-18T05:43:14;99038.56;;;17.69;52.94
54236;BME280;40151;43.606;1.472;2023-03-18T05:45:39;99035.00;;;17.70;52.58
54236;BME280;40151;43.606;1.472;2023-03-18T05:48:05;99041.19;;;17.69;52.79
54236;BME280;40151;43.606;1.472;2023-03-18T05:50:40;99043.84;;;17.69;52.56
54236;BME280;40151;43.606;1.472;2023-03-18T05:53:06;99050.84;;;17.70;52.42
54236;BME280;40151;43.606;1.472;2023-03-18T05:55:33;99048.22;;;17.70;52.42
54236;BME280;40151;43.606;1.472;2023-03-18T05:57:59;99046.59;;;17.68;52.90
54236;BME280;40151;43.606;1.472;2023-03-18T06:00:26;99049.03;;;17.71;52.56
54236;BME280;40151;43.606;1.472;2023-03-18T06:02:53;99045.47;;;17.72;52.52
54236;BME280;40151;43.606;1.472;2023-03-18T06:05:19;99046.47;;;17.69;52.80
54236;BME280;40151;43.606;1.472;2023-03-18T06:07:45;99047.25;;;17.71;52.78
54236;BME280;40151;43.606;1.472;2023-03-18T06:10:11;99043.06;;;17.67;52.70
54236;BME280;40151;43.606;1.472;2023-03-18T06:12:38;99036.09;;;17.66;52.49
54236;BME280;40151;43.606;1.472;2023-03-18T06:15:06;99046.47;;;17.69;52.56
54236;BME280;40151;43.606;1.472;2023-03-18T06:17:31;99043.06;;;17.67;52.53
54236;BME280;40151;43.606;1.472;2023-03-18T06:19:58;99041.19;;;17.69;52.54
54236;BME280;40151;43.606;1.472;2023-03-18T06:22:23;99036.09;;;17.66;52.41
54236;BME280;40151;43.606;1.472;2023-03-18T06:24:51;99040.38;;;17.69;52.40
54236;BME280;40151;43.606;1.472;2023-03-18T06:27:16;99032.53;;;17.67;52.59
54236;BME280;40151;43.606;1.472;2023-03-18T06:29:42;99031.75;;;17.65;52.39
54236;BME280;40151;43.606;1.472;2023-03-18T06:32:08;99036.78;;;17.70;52.77
54236;BME280;40151;43.606;1.472;2023-03-18T06:34:34;99038.75;;;17.66;52.61
54236;BME280;40151;43.606;1.472;2023-03-18T06:37:00;99041.38;;;17.66;52.40
54236;BME280;40151;43.606;1.472;2023-03-18T06:39:26;99031.84;;;17.64;52.59
54236;BME280;40151;43.606;1.472;2023-03-18T06:41:53;99036.25;;;17.63;52.54
54236;BME280;40151;43.606;1.472;2023-03-18T06:44:20;99037.88;;;17.66;52.74
54236;BME280;40151;43.606;1.472;2023-03-18T06:46:45;99036.19;;;17.65;52.48
54236;BME280;40151;43.606;1.472;2023-03-18T06:49:11;99034.56;;;17.62;52.72
54236;BME280;40151;43.606;1.472;2023-03-18T06:51:37;99043.41;;;17.61;52.72
54236;BME280;40151;43.606;1.472;2023-03-18T06:54:03;99036.25;;;17.63;52.61
54236;BME280;40151;43.606;1.472;2023-03-18T06:56:30;99040.63;;;17.64;52.54
54236;BME280;40151;43.606;1.472;2023-03-18T06:58:58;99037.97;;;17.64;52.67
54236;BME280;40151;43.606;1.472;2023-03-18T07:01:23;99036.19;;;17.65;52.79
54236;BME280;40151;43.606;1.472;2023-03-18T07:03:49;99034.56;;;17.62;52.57
54236;BME280;40151;43.606;1.472;2023-03-18T07:06:15;99036.25;;;17.63;52.30
54236;BME280;40151;43.606;1.472;2023-03-18T07:08:40;99035.34;;;17.64;52.49
54236;BME280;40151;43.606;1.472;2023-03-18T07:11:06;99037.13;;;17.64;52.42
54236;BME280;40151;43.606;1.472;2023-03-18T07:13:32;99037.19;;;17.62;52.52
54236;BME280;40151;43.606;1.472;2023-03-18T07:15:58;99033.78;;;17.60;52.33
54236;BME280;40151;43.606;1.472;2023-03-18T07:18:25;99038.31;;;17.58;52.54
54236;BME280;40151;43.606;1.472;2023-03-18T07:20:51;99033.13;;;17.56;52.59
54236;BME280;40151;43.606;1.472;2023-03-18T07:23:16;99035.06;;;17.53;52.71
54236;BME280;40151;43.606;1.472;2023-03-18T07:25:42;99036.75;;;17.54;52.69
54236;BME280;40151;43.606;1.472;2023-03-18T07:28:09;99033.25;;;17.53;52.59
54236;BME280;40151;43.606;1.472;2023-03-18T07:30:35;99035.06;;;17.53;52.45
54236;BME280;40151;43.606;1.472;2023-03-18T07:33:02;99037.69;;;17.53;52.69
54236;BME280;40151;43.606;1.472;2023-03-18T07:35:28;99035.91;;;17.53;52.72
54236;BME280;40151;43.606;1.472;2023-03-18T07:37:53;99034.13;;;17.54;52.68
54236;BME280;40151;43.606;1.472;2023-03-18T07:40:19;99031.50;;;17.54;52.80
54236;BME280;40151;43.606;1.472;2023-03-18T07:42:44;99037.59;;;17.54;52.76
54236;BME280;40151;43.606;1.472;2023-03-18T07:45:10;99047.31;;;17.54;52.55
54236;BME280;40151;43.606;1.472;2023-03-18T07:47:36;99040.34;;;17.53;52.42
54236;BME280;40151;43.606;1.472;2023-03-18T07:50:02;99039.47;;;17.52;52.81
54236;BME280;40151;43.606;1.472;2023-03-18T07:52:28;99034.88;;;17.56;52.89
54236;BME280;40151;43.606;1.472;2023-03-18T07:54:53;99035.69;;;17.58;52.51
54236;BME280;40151;43.606;1.472;2023-03-18T07:57:19;99035.81;;;17.55;52.86
54236;BME280;40151;43.606;1.472;2023-03-18T07:59:44;99038.47;;;17.55;52.92
54236;BME280;40151;43.606;1.472;2023-03-18T08:02:12;99045.63;;;17.53;52.98
54236;BME280;40151;43.606;1.472;2023-03-18T08:04:39;99049.88;;;17.55;52.60
54236;BME280;40151;43.606;1.472;2023-03-18T08:07:04;99053.28;;;17.57;52.66
54236;BME280;40151;43.606;1.472;2023-03-18T08:09:29;99060.94;;;17.62;52.72
54236;BME280;40151;43.606;1.472;2023-03-18T08:11:55;99064.50;;;17.61;52.78
54236;BME280;40151;43.606;1.472;2023-03-18T08:14:20;99062.63;;;17.63;52.68
54236;BME280;40151;43.606;1.472;2023-03-18T08:16:46;99067.00;;;17.64;52.79
54236;BME280;40151;43.606;1.472;2023-03-18T08:19:11;99073.03;;;17.66;52.57
54236;BME280;40151;43.606;1.472;2023-03-18T08:21:37;99069.47;;;17.67;52.68
54236;BME280;40151;43.606;1.472;2023-03-18T08:24:03;99073.03;;;17.66;53.03
54236;BME280;40151;43.606;1.472;2023-03-18T08:26:29;99071.16;;;17.68;52.71
54236;BME280;40151;43.606;1.472;2023-03-18T08:28:55;99061.41;;;17.70;52.54
54236;BME280;40151;43.606;1.472;2023-03-18T08:31:20;99065.75;;;17.71;53.00
54236;BME280;40151;43.606;1.472;2023-03-18T08:33:46;99058.75;;;17.70;52.95
54236;BME280;40151;43.606;1.472;2023-03-18T08:36:13;99056.88;;;17.73;52.82
54236;BME280;40151;43.606;1.472;2023-03-18T08:38:39;99065.56;;;17.75;52.72
54236;BME280;40151;43.606;1.472;2023-03-18T08:41:04;99062.84;;;17.76;53.03
54236;BME280;40151;43.606;1.472;2023-03-18T08:43:31;99072.53;;;17.76;52.69
54236;BME280;40151;43.606;1.472;2023-03-18T08:45:56;99077.66;;;17.79;53.00
54236;BME280;40151;43.606;1.472;2023-03-18T08:48:23;99085.44;;;17.82;52.78
54236;BME280;40151;43.606;1.472;2023-03-18T08:50:50;99088.06;;;17.82;52.71
54236;BME280;40151;43.606;1.472;2023-03-18T08:53:17;99089.66;;;17.84;52.88
54236;BME280;40151;43.606;1.472;2023-03-18T08:55:43;99087.88;;;17.85;52.96
54236;BME280;40151;43.606;1.472;2023-03-18T08:58:08;99092.06;;;17.89;52.93
54236;BME280;40151;43.606;1.472;2023-03-18T09:00:35;99094.72;;;17.89;52.82
54236;BME280;40151;43.606;1.472;2023-03-18T09:03:02;99101.63;;;17.92;52.95
54236;BME280;40151;43.606;1.472;2023-03-18T09:05:28;99099.81;;;17.92;53.13
54236;BME280;40151;43.606;1.472;2023-03-18T09:07:54;99101.50;;;17.93;52.71
54236;BME280;40151;43.606;1.472;2023-03-18T09:10:20;99104.94;;;17.95;52.81
54236;BME280;40151;43.606;1.472;2023-03-18T09:12:46;99102.22;;;17.97;52.80
54236;BME280;40151;43.606;1.472;2023-03-18T09:15:13;99104.75;;;17.98;52.71
54236;BME280;40151;43.606;1.472;2023-03-18T09:17:39;99110.91;;;17.99;52.73
54236;BME280;40151;43.606;1.472;2023-03-18T09:20:06;99112.59;;;18.00;52.88
54236;BME280;40151;43.606;1.472;2023-03-18T09:22:33;99110.72;;;18.02;52.84
54236;BME280;40151;43.606;1.472;2023-03-18T09:24:58;99117.81;;;18.02;52.65
54236;BME280;40151;43.606;1.472;2023-03-18T09:27:24;99116.00;;;18.02;53.77
54236;BME280;40151;43.606;1.472;2023-03-18T09:29:50;99116.75;;;18.06;53.59
54236;BME280;40151;43.606;1.472;2023-03-18T09:32:16;99121.84;;;18.09;53.50
54236;BME280;40151;43.606;1.472;2023-03-18T09:34:42;99110.34;;;18.10;53.49
54236;BME280;40151;43.606;1.472;2023-03-18T09:37:09;99118.25;;;18.10;53.27
54236;BME280;40151;43.606;1.472;2023-03-18T09:39:35;99110.28;;;18.11;53.53
54236;BME280;40151;43.606;1.472;2023-03-18T09:45:07;99095.09;;;18.15;53.75
54236;BME280;40151;43.606;1.472;2023-03-18T09:53:16;99113.44;;;18.18;53.64
54236;BME280;40151;43.606;1.472;2023-03-18T09:55:45;99111.56;;;18.20;54.38
54236;BME280;40151;43.606;1.472;2023-03-18T10:00:56;99108.75;;;18.23;54.24
54236;BME280;40151;43.606;1.472;2023-03-18T10:06:17;99105.19;;;18.24;53.99
54236;BME280;40151;43.606;1.472;2023-03-18T10:09:12;99105.94;;;18.27;53.86
54236;BME280;40151;43.606;1.472;2023-03-18T10:11:45;99094.44;;;18.28;54.24
54236;BME280;40151;43.606;1.472;2023-03-18T10:19:49;99093.41;;;18.30;53.90
54236;BME280;40151;43.606;1.472;2023-03-18T10:25:34;99082.00;;;18.30;54.62
54236;BME280;40151;43.606;1.472;2023-03-18T10:33:58;99088.13;;;18.30;56.26
54236;BME280;40151;43.606;1.472;2023-03-18T10:39:12;99072.19;;;18.32;56.99
54236;BME280;40151;43.606;1.472;2023-03-18T10:41:40;99086.16;;;18.34;57.44
54236;BME280;40151;43.606;1.472;2023-03-18T10:44:19;99085.06;;;18.38;56.93
54236;BME280;40151;43.606;1.472;2023-03-18T10:46:55;99088.66;;;18.37;56.34
54236;BME280;40151;43.606;1.472;2023-03-18T10:49:26;99069.88;;;18.42;55.53
54236;BME280;40151;43.606;1.472;2023-03-18T10:54:42;99078.25;;;18.50;54.32
54236;BME280;40151;43.606;1.472;2023-03-18T10:57:14;99077.22;;;18.52;54.44
54236;BME280;40151;43.606;1.472;2023-03-18T10:59:40;99078.91;;;18.54;54.26
54236;BME280;40151;43.606;1.472;2023-03-18T11:02:37;99068.16;;;18.57;54.12
54236;BME280;40151;43.606;1.472;2023-03-18T11:05:23;99087.44;;;18.59;54.08
54236;BME280;40151;43.606;1.472;2023-03-18T11:08:02;99087.44;;;18.59;53.97
54236;BME280;40151;43.606;1.472;2023-03-18T11:10:36;99094.44;;;18.60;53.73
54236;BME280;40151;43.606;1.472;2023-03-18T11:13:04;99090.84;;;18.61;54.02
54236;BME280;40151;43.606;1.472;2023-03-18T11:15:36;99082.91;;;18.61;54.04
54236;BME280;40151;43.606;1.472;2023-03-18T11:18:04;99087.25;;;18.62;53.69
54236;BME280;40151;43.606;1.472;2023-03-18T11:20:41;99089.91;;;18.62;53.89
54236;BME280;40151;43.606;1.472;2023-03-18T11:23:36;99080.06;;;18.64;53.56
54236;BME280;40151;43.606;1.472;2023-03-18T11:26:22;99089.72;;;18.65;53.70
54236;BME280;40151;43.606;1.472;2023-03-18T11:28:48;99096.72;;;18.66;53.63
54236;BME280;40151;43.606;1.472;2023-03-18T11:31:17;99093.13;;;18.67;53.67
54236;BME280;40151;43.606;1.472;2023-03-18T11:33:43;99090.47;;;18.67;53.55
54236;BME280;40151;43.606;1.472;2023-03-18T11:36:14;99093.06;;;18.69;53.49
54236;BME280;40151;43.606;1.472;2023-03-18T11:38:41;99099.16;;;18.69;53.73
54236;BME280;40151;43.606;1.472;2023-03-18T11:41:08;99097.38;;;18.70;53.54
54236;BME280;40151;43.606;1.472;2023-03-18T11:43:37;99090.28;;;18.70;53.60
54236;BME280;40151;43.606;1.472;2023-03-18T11:46:04;99089.38;;;18.71;53.75
54236;BME280;40151;43.606;1.472;2023-03-18T11:57:07;99095.41;;;18.73;53.72
54236;BME280;40151;43.606;1.472;2023-03-18T12:05:14;99084.69;;;18.76;53.50
54236;BME280;40151;43.606;1.472;2023-03-18T12:08:09;99091.66;;;18.77;53.40
54236;BME280;40151;43.606;1.472;2023-03-18T12:10:39;99081.94;;;18.78;53.70
54236;BME280;40151;43.606;1.472;2023-03-18T12:13:26;99085.44;;;18.78;53.69
54236;BME280;40151;43.606;1.472;2023-03-18T12:30:14;99084.31;;;18.83;54.05
54236;BME280;40151;43.606;1.472;2023-03-18T12:40:34;99083.03;;;18.90;53.79
54236;BME280;40151;43.606;1.472;2023-03-18T12:45:49;99065.34;;;18.90;53.90
54236;BME280;40151;43.606;1.472;2023-03-18T12:48:20;99067.91;;;18.92;53.95
54236;BME280;40151;43.606;1.472;2023-03-18T12:50:52;99074.91;;;18.93;54.15
54236;BME280;40151;43.606;1.472;2023-03-18T12:53:29;99067.06;;;18.91;54.64
54236;BME280;40151;43.606;1.472;2023-03-18T12:55:59;99065.94;;;18.96;54.30
54236;BME280;40151;43.606;1.472;2023-03-18T12:58:33;99050.84;;;18.98;55.28
54236;BME280;40151;43.606;1.472;2023-03-18T13:01:05;99061.78;;;18.91;54.22
54236;BME280;40151;43.606;1.472;2023-03-18T13:03:36;99071.88;;;18.85;54.18
54236;BME280;40151;43.606;1.472;2023-03-18T13:19:58;99067.47;;;18.53;53.82
54236;BME280;40151;43.606;1.472;2023-03-18T13:22:35;99056.25;;;18.49;53.63
54236;BME280;40151;43.606;1.472;2023-03-18T13:25:16;99058.47;;;18.41;53.61
54236;BME280;40151;43.606;1.472;2023-03-18T13:37:11;99061.47;;;18.35;53.10
54236;BME280;40151;43.606;1.472;2023-03-18T13:44:22;99060.34;;;18.39;53.19
54236;BME280;40151;43.606;1.472;2023-03-18T13:46:56;99045.00;;;18.46;53.14
54236;BME280;40151;43.606;1.472;2023-03-18T13:49:27;99050.22;;;18.47;53.13
54236;BME280;40151;43.606;1.472;2023-03-18T13:51:57;99037.41;;;18.56;53.08
54236;BME280;40151;43.606;1.472;2023-03-18T13:54:29;99043.28;;;18.61;52.98
54236;BME280;40151;43.606;1.472;2023-03-18T13:57:15;99044.47;;;18.55;53.72
54236;BME280;40151;43.606;1.472;2023-03-18T13:59:43;99041.69;;;18.42;53.89
54236;BME280;40151;43.606;1.472;2023-03-18T14:04:53;99037.84;;;18.32;54.19
54236;BME280;40151;43.606;1.472;2023-03-18T14:07:22;99035.63;;;18.40;53.98
54236;BME280;40151;43.606;1.472;2023-03-18T14:17:46;99027.69;;;18.40;54.18
54236;BME280;40151;43.606;1.472;2023-03-18T14:22:42;99033.09;;;18.22;54.91
54236;BME280;40151;43.606;1.472;2023-03-18T14:28:11;99028.16;;;18.16;54.43
54236;BME280;40151;43.606;1.472;2023-03-18T14:30:42;99022.69;;;18.03;54.82
54236;BME280;40151;43.606;1.472;2023-03-18T14:39:02;99024.91;;;18.11;57.10
54236;BME280;40151;43.606;1.472;2023-03-18T14:41:24;99029.59;;;18.22;56.23
54236;BME280;40151;43.606;1.472;2023-03-18T14:44:15;99017.94;;;18.26;56.17
54236;BME280;40151;43.606;1.472;2023-03-18T14:46:45;99016.38;;;18.38;55.07
54236;BME280;40151;43.606;1.472;2023-03-18T14:49:35;99014.00;;;18.33;54.92
54236;BME280;40151;43.606;1.472;2023-03-18T14:52:05;99014.34;;;18.27;54.68
54236;BME280;40151;43.606;1.472;2023-03-18T14:54:40;99009.22;;;18.40;54.30
54236;BME280;40151;43.606;1.472;2023-03-18T14:57:07;99001.56;;;18.35;54.44
54236;BME280;40151;43.606;1.472;2023-03-18T14:59:33;99002.56;;;18.33;54.60
54236;BME280;40151;43.606;1.472;2023-03-18T15:02:01;98996.53;;;18.31;53.91
54236;BME280;40151;43.606;1.472;2023-03-18T15:04:27;98999.09;;;18.16;54.13
54236;BME280;40151;43.606;1.472;2023-03-18T15:06:54;99006.00;;;18.19;53.93
54236;BME280;40151;43.606;1.472;2023-03-18T15:09:29;99001.38;;;18.22;54.22
54236;BME280;40151;43.606;1.472;2023-03-18T15:11:56;98994.94;;;18.12;54.46
54236;BME280;40151;43.606;1.472;2023-03-18T15:14:29;98996.66;;;18.13;54.46
54236;BME280;40151;43.606;1.472;2023-03-18T15:16:58;98994.41;;;18.05;54.55
54236;BME280;40151;43.606;1.472;2023-03-18T15:19:23;98993.06;;;18.14;54.45
54236;BME280;40151;43.606;1.472;2023-03-18T15:21:51;98996.31;;;18.19;54.48